Time;durP1;ratioP1;P1;durP2;ratioP2;P2;SDS_P1;SDS_P2;PMS_P1;PMS_P2;Temp;Humidity;BMP_temperature;BMP_pressure;BME280_temperature;BME280_humidity;BME280_pressure;Samples;Min_cycle;Max_cycle;Signal;HPM_P1;HPM_P2
2023/10/05 00:03:47;;;;;;;17.40;3.47;;;;;;;;;;4946935;28;20050;-72
2023/10/05 00:06:14;;;;;;;14.65;3.63;;;;;;;;;;4946202;28;20036;-72
2023/10/05 00:08:49;;;;;;;16.42;3.35;;;;;;;;;;4940768;29;20035;-74
2023/10/05 00:11:28;;;;;;;20.38;3.30;;;;;;;;;;4939582;28;20027;-73
2023/10/05 00:13:59;;;;;;;15.52;3.53;;;;;;;;;;4944572;29;20035;-73
2023/10/05 00:16:37;;;;;;;16.23;3.22;;;;;;;;;;4938788;29;20035;-73
2023/10/05 00:19:13;;;;;;;17.63;3.78;;;;;;;;;;4943294;28;20051;-74
2023/10/05 00:21:46;;;;;;;15.85;3.22;;;;;;;;;;4948100;28;20015;-71
2023/10/05 00:24:13;;;;;;;18.27;3.70;;;;;;;;;;4941703;29;20103;-73
2023/10/05 00:26:39;;;;;;;12.18;3.20;;;;;;;;;;4945608;29;20600;-73
2023/10/05 00:31:44;;;;;;;15.13;3.20;;;;;;;;;;4943229;29;20063;-72
2023/10/05 00:34:22;;;;;;;21.13;3.97;;;;;;;;;;4944528;28;20059;-73
2023/10/05 00:36:53;;;;;;;15.88;3.25;;;;;;;;;;4945078;28;20452;-73
2023/10/05 00:39:20;;;;;;;20.70;3.50;;;;;;;;;;4938206;28;20027;-74
2023/10/05 00:41:49;;;;;;;20.25;3.00;;;;;;;;;;4924041;29;20024;-73
2023/10/05 00:44:16;;;;;;;22.98;4.65;;;;;;;;;;4941738;28;20079;-73
2023/10/05 00:46:50;;;;;;;19.65;5.32;;;;;;;;;;4920905;29;20032;-73
2023/10/05 00:49:21;;;;;;;17.48;3.92;;;;;;;;;;4919950;28;20028;-74
2023/10/05 00:51:59;;;;;;;16.60;3.83;;;;;;;;;;4904522;29;20058;-74
2023/10/05 00:54:31;;;;;;;18.20;3.67;;;;;;;;;;4937070;29;20058;-73
2023/10/05 00:57:09;;;;;;;17.70;4.25;;;;;;;;;;4943069;28;20398;-72
2023/10/05 00:59:36;;;;;;;12.23;2.97;;;;;;;;;;4939310;28;20024;-72
2023/10/05 01:04:34;;;;;;;17.05;3.45;;;;;;;;;;4939174;28;20039;-73
2023/10/05 01:07:17;;;;;;;21.17;4.20;;;;;;;;;;4935750;28;20115;-72
2023/10/05 01:12:36;;;;;;;15.02;3.40;;;;;;;;;;4937825;28;20043;-74
2023/10/05 01:15:06;;;;;;;13.85;3.20;;;;;;;;;;4924595;29;20039;-72
2023/10/05 01:17:33;;;;;;;18.85;3.55;;;;;;;;;;4950422;28;20106;-72
2023/10/05 01:20:22;;;;;;;10.80;2.85;;;;;;;;;;4956066;28;20035;-73
2023/10/05 01:22:49;;;;;;;14.98;3.83;;;;;;;;;;4943355;28;20035;-71
2023/10/05 01:25:15;;;;;;;18.40;3.63;;;;;;;;;;4946864;28;20059;-72
2023/10/05 01:27:45;;;;;;;17.55;3.55;;;;;;;;;;4944555;28;20043;-72
2023/10/05 01:30:17;;;;;;;16.38;2.67;;;;;;;;;;4946748;28;20134;-72
2023/10/05 01:32:44;;;;;;;19.95;3.58;;;;;;;;;;4938940;29;20151;-72
2023/10/05 01:35:13;;;;;;;12.75;3.25;;;;;;;;;;4924827;29;20035;-72
2023/10/05 01:37:46;;;;;;;22.90;4.25;;;;;;;;;;4926477;29;20504;-72
2023/10/05 01:42:47;;;;;;;29.92;4.15;;;;;;;;;;4939936;29;20119;-72
2023/10/05 01:45:17;;;;;;;17.63;3.50;;;;;;;;;;4941113;29;20032;-74
2023/10/05 01:47:44;;;;;;;14.93;3.22;;;;;;;;;;4949812;28;20031;-73
2023/10/05 01:50:22;;;;;;;17.92;4.00;;;;;;;;;;4958737;28;20291;-72
2023/10/05 01:53:08;;;;;;;13.20;3.38;;;;;;;;;;4946717;29;20043;-73
2023/10/05 01:55:35;;;;;;;17.38;3.53;;;;;;;;;;4942310;28;20114;-73
2023/10/05 01:58:04;;;;;;;13.15;3.25;;;;;;;;;;4940889;28;20034;-73
2023/10/05 02:00:32;;;;;;;15.13;3.75;;;;;;;;;;4944925;28;20141;-74
2023/10/05 02:02:58;;;;;;;18.13;3.90;;;;;;;;;;4924097;29;20869;-73
2023/10/05 02:05:24;;;;;;;15.77;4.35;;;;;;;;;;4946870;28;20035;-72
2023/10/05 02:07:50;;;;;;;14.60;3.80;;;;;;;;;;4929119;29;20027;-73
2023/10/05 02:10:20;;;;;;;19.58;3.65;;;;;;;;;;4932851;28;20520;-73
2023/10/05 02:12:49;;;;;;;12.63;3.65;;;;;;;;;;4911610;29;20039;-72
2023/10/05 02:15:16;;;;;;;18.52;3.83;;;;;;;;;;4947031;28;20093;-73
2023/10/05 02:17:51;;;;;;;15.63;3.55;;;;;;;;;;4943002;29;20035;-75
2023/10/05 02:22:59;;;;;;;18.17;3.40;;;;;;;;;;4933478;28;20039;-73
2023/10/05 02:25:34;;;;;;;18.60;3.47;;;;;;;;;;4948761;29;20850;-72
2023/10/05 02:28:00;;;;;;;26.73;3.88;;;;;;;;;;4946420;28;20067;-73
2023/10/05 02:30:27;;;;;;;15.45;3.08;;;;;;;;;;4941940;28;20031;-73
2023/10/05 02:32:58;;;;;;;16.05;3.30;;;;;;;;;;4946189;28;20058;-73
2023/10/05 02:35:33;;;;;;;15.50;3.40;;;;;;;;;;4945024;28;20126;-74
2023/10/05 02:37:59;;;;;;;16.25;4.63;;;;;;;;;;4943834;28;20035;-72
2023/10/05 02:40:35;;;;;;;19.48;3.80;;;;;;;;;;4929454;28;20562;-73
2023/10/05 02:43:06;;;;;;;15.77;3.22;;;;;;;;;;4944836;28;20027;-72
2023/10/05 02:45:32;;;;;;;15.00;4.68;;;;;;;;;;4945780;28;20044;-73
2023/10/05 02:47:59;;;;;;;18.90;3.88;;;;;;;;;;4941967;28;20057;-75
2023/10/05 02:50:27;;;;;;;17.75;3.72;;;;;;;;;;4926342;28;20340;-72
2023/10/05 02:52:55;;;;;;;18.17;3.40;;;;;;;;;;4963106;28;20062;-73
2023/10/05 02:55:23;;;;;;;16.75;3.70;;;;;;;;;;4958046;29;20047;-72
2023/10/05 02:57:49;;;;;;;18.10;4.22;;;;;;;;;;4930403;29;20032;-73
2023/10/05 03:00:19;;;;;;;18.33;4.20;;;;;;;;;;4931274;28;20034;-73
2023/10/05 03:02:49;;;;;;;15.27;3.83;;;;;;;;;;4948980;29;20034;-72
2023/10/05 03:05:15;;;;;;;17.70;3.53;;;;;;;;;;4947318;28;20031;-75
2023/10/05 03:07:43;;;;;;;16.33;4.18;;;;;;;;;;4929719;29;20318;-72
2023/10/05 03:10:15;;;;;;;16.45;4.43;;;;;;;;;;4925659;28;20048;-74
2023/10/05 03:12:43;;;;;;;22.42;4.20;;;;;;;;;;4943870;29;20140;-71
2023/10/05 03:15:12;;;;;;;17.95;3.70;;;;;;;;;;4932708;28;20031;-74
2023/10/05 03:17:45;;;;;;;16.77;3.53;;;;;;;;;;4943944;28;20023;-74
2023/10/05 03:20:18;;;;;;;18.65;4.10;;;;;;;;;;4945223;28;20066;-74
2023/10/05 03:22:47;;;;;;;16.27;3.78;;;;;;;;;;4949269;28;20042;-71
2023/10/05 03:25:16;;;;;;;18.42;4.07;;;;;;;;;;4943042;28;20035;-72
2023/10/05 03:27:45;;;;;;;14.23;3.90;;;;;;;;;;4929050;29;20292;-72
2023/10/05 03:30:14;;;;;;;18.33;4.30;;;;;;;;;;4929297;28;20035;-72
2023/10/05 03:32:42;;;;;;;20.83;4.60;;;;;;;;;;4924284;29;20137;-73
2023/10/05 03:35:09;;;;;;;18.58;4.07;;;;;;;;;;4944378;28;20039;-73
2023/10/05 03:37:39;;;;;;;16.52;4.13;;;;;;;;;;4924638;29;20039;-74
2023/10/05 03:42:32;;;;;;;18.70;4.32;;;;;;;;;;4943883;28;20049;-74
2023/10/05 03:45:09;;;;;;;19.60;4.15;;;;;;;;;;4942830;28;20347;-73
2023/10/05 03:47:37;;;;;;;18.58;4.43;;;;;;;;;;4941989;28;20055;-73
2023/10/05 03:50:08;;;;;;;23.05;4.93;;;;;;;;;;4937255;28;20047;-72
2023/10/05 03:52:37;;;;;;;17.20;4.18;;;;;;;;;;4947739;28;20049;-72
2023/10/05 03:55:04;;;;;;;17.20;5.63;;;;;;;;;;4946029;28;20031;-72
2023/10/05 03:57:31;;;;;;;13.35;4.07;;;;;;;;;;4931850;28;20035;-73
2023/10/05 04:00:15;;;;;;;13.80;3.50;;;;;;;;;;4943308;28;20023;-73
2023/10/05 04:02:43;;;;;;;18.58;4.10;;;;;;;;;;4942151;28;20069;-74
2023/10/05 04:05:10;;;;;;;13.60;4.28;;;;;;;;;;4943384;28;20047;-75
2023/10/05 04:07:37;;;;;;;20.77;4.50;;;;;;;;;;4951860;28;20122;-72
2023/10/05 04:10:05;;;;;;;18.60;4.07;;;;;;;;;;4945897;28;20031;-72
2023/10/05 04:12:34;;;;;;;18.67;4.70;;;;;;;;;;4945252;28;20126;-76
2023/10/05 04:15:01;;;;;;;25.38;4.20;;;;;;;;;;4945225;28;20457;-74
2023/10/05 04:17:27;;;;;;;18.75;5.22;;;;;;;;;;4952429;28;20130;-72
2023/10/05 04:19:54;;;;;;;20.23;4.30;;;;;;;;;;4947957;28;20432;-71
2023/10/05 04:22:20;;;;;;;20.30;4.40;;;;;;;;;;4943224;28;20023;-73
2023/10/05 04:24:46;;;;;;;16.48;5.40;;;;;;;;;;4925485;28;20126;-72
2023/10/05 04:27:13;;;;;;;18.40;4.90;;;;;;;;;;4943857;28;20470;-72
2023/10/05 04:29:39;;;;;;;23.83;5.63;;;;;;;;;;4944118;28;20043;-74
2023/10/05 04:32:06;;;;;;;15.27;4.10;;;;;;;;;;4885662;28;1274550;-73
2023/10/05 04:34:33;;;;;;;18.95;4.32;;;;;;;;;;4924571;28;20031;-73
2023/10/05 04:36:59;;;;;;;21.83;4.95;;;;;;;;;;4945625;28;20039;-73
2023/10/05 04:39:30;;;;;;;22.67;4.75;;;;;;;;;;4945883;28;20062;-73
2023/10/05 04:42:11;;;;;;;22.67;4.85;;;;;;;;;;4926779;28;20027;-74
2023/10/05 04:44:38;;;;;;;13.18;4.55;;;;;;;;;;4937803;28;20027;-73
2023/10/05 04:47:04;;;;;;;23.55;5.22;;;;;;;;;;4932284;28;20027;-73
2023/10/05 04:49:31;;;;;;;16.10;4.88;;;;;;;;;;4947397;28;20582;-73
2023/10/05 04:51:59;;;;;;;20.45;5.45;;;;;;;;;;4950882;28;20139;-74
2023/10/05 04:54:26;;;;;;;21.27;5.22;;;;;;;;;;4926138;28;20473;-72
2023/10/05 04:59:23;;;;;;;17.58;5.05;;;;;;;;;;4963050;28;20027;-74
2023/10/05 05:07:07;;;;;;;21.25;5.25;;;;;;;;;;4945509;28;20082;-73
2023/10/05 05:09:34;;;;;;;20.27;6.30;;;;;;;;;;4941877;28;20090;-75
2023/10/05 05:12:04;;;;;;;18.55;5.25;;;;;;;;;;4946278;28;20180;-72
2023/10/05 05:14:35;;;;;;;22.38;5.35;;;;;;;;;;4943598;28;20879;-72
2023/10/05 05:17:02;;;;;;;19.95;5.35;;;;;;;;;;4949016;28;20066;-72
2023/10/05 05:19:30;;;;;;;25.30;5.68;;;;;;;;;;4927947;28;20031;-72
2023/10/05 05:21:57;;;;;;;17.75;4.35;;;;;;;;;;4940496;28;20481;-74
2023/10/05 05:24:23;;;;;;;16.20;4.47;;;;;;;;;;4944860;28;20051;-73
2023/10/05 05:26:50;;;;;;;21.38;5.65;;;;;;;;;;4946784;28;20073;-73
2023/10/05 05:29:18;;;;;;;17.30;4.90;;;;;;;;;;4945652;28;20062;-73
2023/10/05 05:31:44;;;;;;;18.58;4.50;;;;;;;;;;4943126;28;20146;-74
2023/10/05 05:34:11;;;;;;;17.15;5.55;;;;;;;;;;4941680;28;20043;-71
2023/10/05 05:36:37;;;;;;;19.77;4.95;;;;;;;;;;4948188;28;20049;-72
2023/10/05 05:39:04;;;;;;;24.08;6.22;;;;;;;;;;4946210;28;20538;-74
2023/10/05 05:41:30;;;;;;;22.00;5.70;;;;;;;;;;4947310;28;20122;-73
2023/10/05 05:43:56;;;;;;;18.80;5.40;;;;;;;;;;4949724;28;20563;-73
2023/10/05 05:46:22;;;;;;;23.20;5.70;;;;;;;;;;4942946;28;20169;-74
2023/10/05 05:48:52;;;;;;;22.52;5.15;;;;;;;;;;4947897;28;20031;-73
2023/10/05 05:51:22;;;;;;;24.98;5.82;;;;;;;;;;4941597;28;20043;-71
2023/10/05 05:53:48;;;;;;;19.50;5.70;;;;;;;;;;4945896;28;20047;-72
2023/10/05 05:56:28;;;;;;;24.50;6.25;;;;;;;;;;4947927;28;20601;-71
2023/10/05 05:58:54;;;;;;;22.50;7.05;;;;;;;;;;4945493;29;20087;-71
2023/10/05 06:01:20;;;;;;;21.60;5.63;;;;;;;;;;4949590;28;20489;-72
2023/10/05 06:03:51;;;;;;;21.17;5.72;;;;;;;;;;4947364;29;20103;-72
2023/10/05 06:06:19;;;;;;;31.90;6.47;;;;;;;;;;4949746;29;20042;-72
2023/10/05 06:08:45;;;;;;;18.80;5.20;;;;;;;;;;4949469;29;20035;-72
2023/10/05 06:11:12;;;;;;;23.02;6.03;;;;;;;;;;4944215;29;20107;-71
2023/10/05 06:13:38;;;;;;;23.70;5.82;;;;;;;;;;4948986;29;20059;-72
2023/10/05 06:16:06;;;;;;;27.67;6.10;;;;;;;;;;4947430;29;20019;-74
2023/10/05 06:18:32;;;;;;;20.13;5.25;;;;;;;;;;4950958;29;20377;-72
2023/10/05 06:20:59;;;;;;;20.73;5.00;;;;;;;;;;4933331;28;20646;-72
2023/10/05 06:23:25;;;;;;;18.45;5.43;;;;;;;;;;4945863;28;20025;-73
2023/10/05 06:25:52;;;;;;;19.13;5.13;;;;;;;;;;4945596;28;20110;-72
2023/10/05 06:28:19;;;;;;;23.70;5.88;;;;;;;;;;4952498;29;20143;-73
2023/10/05 06:30:45;;;;;;;21.77;5.88;;;;;;;;;;4919754;29;20122;-73
2023/10/05 06:33:11;;;;;;;18.80;6.05;;;;;;;;;;4945796;28;20142;-72
2023/10/05 06:35:37;;;;;;;21.52;5.22;;;;;;;;;;4922120;29;20217;-72
2023/10/05 06:38:03;;;;;;;30.30;5.47;;;;;;;;;;4931019;29;20027;-73
2023/10/05 06:40:29;;;;;;;23.73;5.65;;;;;;;;;;4952284;29;20043;-73
2023/10/05 06:42:57;;;;;;;24.67;6.20;;;;;;;;;;4934495;29;20035;-73
2023/10/05 06:45:24;;;;;;;18.83;5.15;;;;;;;;;;4951146;28;20102;-74
2023/10/05 06:47:51;;;;;;;18.00;5.05;;;;;;;;;;4953137;28;20051;-73
2023/10/05 06:50:17;;;;;;;14.50;4.68;;;;;;;;;;4955003;28;20028;-74
2023/10/05 06:52:44;;;;;;;18.35;4.95;;;;;;;;;;4953539;29;20023;-71
2023/10/05 06:55:12;;;;;;;22.60;5.00;;;;;;;;;;4954086;29;20066;-71
2023/10/05 06:57:38;;;;;;;19.08;4.82;;;;;;;;;;4953188;28;20420;-71
2023/10/05 07:00:11;;;;;;;21.48;5.57;;;;;;;;;;4951675;28;20027;-73
2023/10/05 07:02:38;;;;;;;23.02;5.20;;;;;;;;;;4952919;28;20027;-72
2023/10/05 07:05:05;;;;;;;14.05;4.07;;;;;;;;;;4952748;29;20051;-72
2023/10/05 07:07:33;;;;;;;25.63;5.53;;;;;;;;;;4952988;29;20119;-74
2023/10/05 07:09:59;;;;;;;19.13;5.22;;;;;;;;;;4950174;29;20568;-73
2023/10/05 07:12:25;;;;;;;21.42;5.40;;;;;;;;;;4951811;29;20140;-74
2023/10/05 07:14:51;;;;;;;22.00;4.80;;;;;;;;;;4948556;28;20043;-72
2023/10/05 07:17:18;;;;;;;21.77;5.40;;;;;;;;;;4948862;29;20631;-73
2023/10/05 07:19:48;;;;;;;15.48;5.40;;;;;;;;;;4949155;28;20043;-73
2023/10/05 07:22:14;;;;;;;21.52;5.32;;;;;;;;;;4947568;28;20082;-72
2023/10/05 07:24:41;;;;;;;17.10;4.43;;;;;;;;;;4948882;28;20218;-74
2023/10/05 07:27:08;;;;;;;22.50;4.90;;;;;;;;;;4950036;29;20050;-72
2023/10/05 07:29:34;;;;;;;18.88;4.03;;;;;;;;;;4953106;28;20110;-74
2023/10/05 07:32:02;;;;;;;17.67;4.72;;;;;;;;;;4927965;29;20059;-73
2023/10/05 07:34:30;;;;;;;15.02;4.05;;;;;;;;;;4952660;29;20418;-72
2023/10/05 07:36:57;;;;;;;14.25;4.20;;;;;;;;;;4949975;29;20031;-72
2023/10/05 07:39:23;;;;;;;15.18;4.00;;;;;;;;;;4950971;29;20032;-74
2023/10/05 07:41:52;;;;;;;16.25;4.13;;;;;;;;;;4951805;28;20425;-73
2023/10/05 07:44:19;;;;;;;18.10;4.15;;;;;;;;;;4933311;29;20115;-73
2023/10/05 07:46:45;;;;;;;19.58;4.18;;;;;;;;;;4931510;29;20032;-71
2023/10/05 07:49:11;;;;;;;16.13;4.50;;;;;;;;;;4949979;29;20051;-72
2023/10/05 07:51:37;;;;;;;17.70;5.32;;;;;;;;;;4950475;28;20038;-74
2023/10/05 07:54:03;;;;;;;17.75;4.00;;;;;;;;;;4949180;28;20053;-71
2023/10/05 07:56:32;;;;;;;16.65;4.88;;;;;;;;;;4952554;29;20102;-74
2023/10/05 07:59:01;;;;;;;16.48;3.97;;;;;;;;;;4934763;28;20046;-74
2023/10/05 08:01:28;;;;;;;18.52;4.55;;;;;;;;;;4928130;28;20110;-73
2023/10/05 08:03:54;;;;;;;18.95;4.95;;;;;;;;;;4954360;28;20031;-77
2023/10/05 08:06:21;;;;;;;11.57;3.88;;;;;;;;;;4931704;29;20027;-78
2023/10/05 08:08:47;;;;;;;16.23;4.47;;;;;;;;;;4961274;28;20063;-72
2023/10/05 08:11:14;;;;;;;13.98;4.10;;;;;;;;;;4964734;29;20059;-73
2023/10/05 08:13:40;;;;;;;17.00;4.40;;;;;;;;;;4937815;29;20126;-73
2023/10/05 08:16:10;;;;;;;12.90;4.05;;;;;;;;;;4935703;29;20115;-73
2023/10/05 08:18:37;;;;;;;11.35;3.60;;;;;;;;;;4932886;29;20032;-74
2023/10/05 08:21:04;;;;;;;16.25;4.63;;;;;;;;;;4932557;29;20028;-72
2023/10/05 08:23:30;;;;;;;15.80;4.20;;;;;;;;;;4950331;28;20027;-72
2023/10/05 08:25:57;;;;;;;16.55;4.53;;;;;;;;;;4947997;29;20109;-73
2023/10/05 08:28:24;;;;;;;19.00;4.07;;;;;;;;;;4947375;29;20482;-73
2023/10/05 08:31:06;;;;;;;15.60;4.32;;;;;;;;;;4950343;29;20038;-72
2023/10/05 08:33:35;;;;;;;16.58;3.72;;;;;;;;;;4949980;29;20102;-74
2023/10/05 08:36:06;;;;;;;19.80;4.22;;;;;;;;;;4947566;29;20507;-72
2023/10/05 08:38:32;;;;;;;;;;;;;;;;;;4943667;29;20055;-71
2023/10/05 08:41:01;;;;;;;17.85;3.92;;;;;;;;;;4952068;28;20332;-73
2023/10/05 08:43:28;;;;;;;12.57;4.03;;;;;;;;;;4952250;29;20635;-72
2023/10/05 08:46:01;;;;;;;14.80;3.63;;;;;;;;;;4948993;28;20053;-72
2023/10/05 08:48:28;;;;;;;15.15;4.07;;;;;;;;;;4951424;28;20054;-73
2023/10/05 08:50:58;;;;;;;17.50;4.18;;;;;;;;;;4948911;28;20039;-73
2023/10/05 08:53:24;;;;;;;21.08;5.32;;;;;;;;;;4951589;28;20047;-72
2023/10/05 08:55:51;;;;;;;17.92;4.10;;;;;;;;;;4950693;28;20105;-72
2023/10/05 08:58:22;;;;;;;14.73;3.50;;;;;;;;;;4950850;28;20031;-72
2023/10/05 09:00:48;;;;;;;;;;;;;;;;;;4950389;28;20032;-73
2023/10/05 09:03:30;;;;;;;17.70;3.72;;;;;;;;;;4951271;28;19914;-73
2023/10/05 09:06:20;;;;;;;16.27;3.92;;;;;;;;;;4951158;29;20036;-75
2023/10/05 09:08:54;;;;;;;14.93;3.65;;;;;;;;;;4949384;29;20027;-73
2023/10/05 09:11:33;;;;;;;14.43;3.53;;;;;;;;;;4949532;28;20114;-72
2023/10/05 09:14:08;;;;;;;17.98;3.60;;;;;;;;;;4937259;29;20053;-74
2023/10/05 09:16:41;;;;;;;17.05;3.47;;;;;;;;;;4954927;28;20489;-73
2023/10/05 09:19:29;;;;;;;14.18;3.70;;;;;;;;;;4940910;28;20551;-73
2023/10/05 09:24:25;;;;;;;12.20;3.25;;;;;;;;;;4956311;28;20485;-72
2023/10/05 09:26:52;;;;;;;15.20;4.15;;;;;;;;;;4936912;29;20043;-73
2023/10/05 09:29:21;;;;;;;20.73;3.45;;;;;;;;;;4953077;28;20050;-73
2023/10/05 09:31:50;;;;;;;20.95;3.80;;;;;;;;;;4951838;29;20505;-73
2023/10/05 09:34:37;;;;;;;15.20;3.35;;;;;;;;;;4933548;29;20064;-72
2023/10/05 09:37:06;;;;;;;19.45;3.80;;;;;;;;;;4949561;28;20027;-72
2023/10/05 09:39:43;;;;;;;27.50;4.50;;;;;;;;;;4936999;29;20031;-72
2023/10/05 09:42:15;;;;;;;14.10;3.63;;;;;;;;;;4953657;28;20044;-72
2023/10/05 09:44:45;;;;;;;17.42;3.38;;;;;;;;;;4952988;29;20043;-72
2023/10/05 09:47:12;;;;;;;12.80;3.35;;;;;;;;;;4953865;28;20035;-72
2023/10/05 09:49:45;;;;;;;13.80;3.85;;;;;;;;;;4955174;29;20095;-72
2023/10/05 09:52:12;;;;;;;17.73;3.78;;;;;;;;;;4960276;28;20134;-73
2023/10/05 09:54:40;;;;;;;16.08;3.47;;;;;;;;;;4938836;29;20023;-73
2023/10/05 09:57:12;;;;;;;19.60;3.78;;;;;;;;;;4933961;29;20068;-74
2023/10/05 09:59:51;;;;;;;16.63;3.20;;;;;;;;;;4935336;29;20537;-73
2023/10/05 10:02:18;;;;;;;15.77;3.88;;;;;;;;;;4940641;29;20545;-71
2023/10/05 10:04:46;;;;;;;17.83;3.28;;;;;;;;;;4955401;29;20085;-72
2023/10/05 10:07:22;;;;;;;16.75;3.20;;;;;;;;;;4953050;28;20117;-73
2023/10/05 10:09:53;;;;;;;22.45;4.25;;;;;;;;;;4950574;29;20121;-71
2023/10/05 10:12:25;;;;;;;18.15;3.50;;;;;;;;;;4954270;28;20067;-73
2023/10/05 10:14:54;;;;;;;15.18;3.85;;;;;;;;;;4958634;29;20042;-72
2023/10/05 10:17:27;;;;;;;14.27;2.70;;;;;;;;;;4959111;29;20113;-72
2023/10/05 10:20:07;;;;;;;16.35;3.70;;;;;;;;;;4962753;29;20034;-73
2023/10/05 10:22:47;;;;;;;17.23;3.53;;;;;;;;;;4931892;29;20043;-73
2023/10/05 10:25:37;;;;;;;22.60;4.07;;;;;;;;;;4952893;29;20574;-72
2023/10/05 10:28:43;;;;;;;14.75;3.10;;;;;;;;;;4935382;29;20031;-72
2023/10/05 10:31:13;;;;;;;11.30;2.83;;;;;;;;;;4954545;28;20043;-72
2023/10/05 10:33:40;;;;;;;12.38;2.95;;;;;;;;;;4952798;28;20513;-71
2023/10/05 10:36:18;;;;;;;14.00;3.35;;;;;;;;;;4952854;29;20064;-72
2023/10/05 10:38:51;;;;;;;14.60;3.22;;;;;;;;;;4952926;29;20027;-73
2023/10/05 10:41:21;;;;;;;18.90;3.63;;;;;;;;;;4949377;29;20039;-73
2023/10/05 10:43:52;;;;;;;15.98;3.05;;;;;;;;;;4953090;28;20059;-72
2023/10/05 10:46:34;;;;;;;19.08;3.30;;;;;;;;;;4949361;29;20058;-71
2023/10/05 10:49:00;;;;;;;17.48;3.25;;;;;;;;;;4949973;29;20066;-72
2023/10/05 10:51:27;;;;;;;17.08;3.55;;;;;;;;;;4956394;28;20434;-72
2023/10/05 10:53:55;;;;;;;14.43;2.80;;;;;;;;;;4953007;29;20043;-71
2023/10/05 10:56:27;;;;;;;12.23;2.72;;;;;;;;;;4950986;29;20063;-71
2023/10/05 10:59:08;;;;;;;11.30;2.60;;;;;;;;;;4932668;29;20031;-71
2023/10/05 11:01:44;;;;;;;12.98;3.20;;;;;;;;;;4948283;29;20118;-72
2023/10/05 11:04:26;;;;;;;17.00;4.05;;;;;;;;;;4938250;28;20047;-71
2023/10/05 11:06:56;;;;;;;15.95;3.13;;;;;;;;;;4954421;29;20046;-71
2023/10/05 11:09:35;;;;;;;17.67;3.22;;;;;;;;;;4950290;29;20035;-72
2023/10/05 11:12:11;;;;;;;12.85;3.33;;;;;;;;;;4950237;28;20066;-75
2023/10/05 11:14:37;;;;;;;11.18;3.20;;;;;;;;;;4958800;28;20094;-72
2023/10/05 11:17:11;;;;;;;16.90;3.00;;;;;;;;;;4950736;29;20115;-71
2023/10/05 11:19:38;;;;;;;14.63;3.38;;;;;;;;;;4951209;29;20039;-71
2023/10/05 11:22:11;;;;;;;17.40;3.80;;;;;;;;;;4958622;28;20129;-72
2023/10/05 11:24:57;;;;;;;14.43;3.05;;;;;;;;;;4935651;28;20424;-72
2023/10/05 11:27:23;;;;;;;11.10;2.85;;;;;;;;;;4934319;29;20513;-72
2023/10/05 11:29:55;;;;;;;13.95;3.15;;;;;;;;;;4954809;29;20050;-72
2023/10/05 11:32:25;;;;;;;13.00;3.05;;;;;;;;;;4952997;29;20156;-72
2023/10/05 11:34:55;;;;;;;15.48;4.40;;;;;;;;;;4934427;29;20038;-71
2023/10/05 11:37:25;;;;;;;16.48;3.30;;;;;;;;;;4949395;28;20032;-72
2023/10/05 11:39:58;;;;;;;17.03;3.63;;;;;;;;;;4952524;28;20388;-71
2023/10/05 11:42:25;;;;;;;12.63;3.10;;;;;;;;;;4952693;28;20330;-72
2023/10/05 11:45:03;;;;;;;18.17;3.00;;;;;;;;;;4951746;29;20035;-73
2023/10/05 11:47:35;;;;;;;17.25;3.67;;;;;;;;;;4918449;28;20051;-71
2023/10/05 11:50:06;;;;;;;15.00;3.15;;;;;;;;;;4948593;29;20034;-74
2023/10/05 11:52:32;;;;;;;22.60;2.92;;;;;;;;;;4952411;29;20027;-72
2023/10/05 11:54:58;;;;;;;13.65;2.95;;;;;;;;;;4952503;29;20106;-73
2023/10/05 11:57:24;;;;;;;14.15;3.47;;;;;;;;;;4950739;29;20031;-72
2023/10/05 11:59:50;;;;;;;14.18;2.95;;;;;;;;;;4930389;29;20032;-73
2023/10/05 12:02:17;;;;;;;11.38;3.40;;;;;;;;;;4947379;28;20043;-72
2023/10/05 12:04:43;;;;;;;13.57;2.70;;;;;;;;;;4943318;28;20070;-72
2023/10/05 12:07:13;;;;;;;14.68;3.28;;;;;;;;;;4950279;29;20039;-71
2023/10/05 12:09:43;;;;;;;11.00;2.97;;;;;;;;;;4950427;29;20488;-73
2023/10/05 12:12:18;;;;;;;14.23;4.22;;;;;;;;;;4951622;28;20082;-71
2023/10/05 12:14:45;;;;;;;17.10;3.53;;;;;;;;;;4951118;29;20085;-72
2023/10/05 12:17:11;;;;;;;11.60;2.97;;;;;;;;;;4951330;29;20051;-73
2023/10/05 12:19:39;;;;;;;15.55;3.30;;;;;;;;;;4952313;29;20031;-72
2023/10/05 12:22:06;;;;;;;13.90;3.03;;;;;;;;;;4951567;29;20043;-73
2023/10/05 12:24:35;;;;;;;17.38;3.70;;;;;;;;;;4934537;29;20556;-72
2023/10/05 12:27:13;;;;;;;12.48;3.00;;;;;;;;;;4951484;28;20035;-72
2023/10/05 12:29:42;;;;;;;13.73;2.97;;;;;;;;;;4950427;29;20042;-72
2023/10/05 12:32:13;;;;;;;11.73;2.90;;;;;;;;;;4917014;29;20055;-72
2023/10/05 12:34:47;;;;;;;14.40;3.53;;;;;;;;;;4950921;28;20055;-72
2023/10/05 12:37:17;;;;;;;12.43;3.13;;;;;;;;;;4951222;28;20034;-72
2023/10/05 12:39:45;;;;;;;13.43;3.47;;;;;;;;;;4951433;29;20053;-71
2023/10/05 12:42:11;;;;;;;14.93;3.35;;;;;;;;;;4950993;29;20063;-72
2023/10/05 12:44:39;;;;;;;11.25;3.05;;;;;;;;;;4932898;29;20560;-71
2023/10/05 12:47:08;;;;;;;13.45;3.60;;;;;;;;;;4943988;29;20107;-72
2023/10/05 12:49:34;;;;;;;13.85;3.08;;;;;;;;;;4950397;28;20041;-71
2023/10/05 12:52:00;;;;;;;15.70;3.20;;;;;;;;;;4950896;29;20027;-72
2023/10/05 12:54:29;;;;;;;10.95;3.30;;;;;;;;;;4947879;28;20078;-71
2023/10/05 12:56:57;;;;;;;9.60;2.97;;;;;;;;;;4950392;29;20067;-71
2023/10/05 12:59:24;;;;;;;13.70;3.25;;;;;;;;;;4951399;29;20051;-72
2023/10/05 13:01:51;;;;;;;12.23;3.40;;;;;;;;;;4950584;28;20053;-71
2023/10/05 13:04:18;;;;;;;14.18;3.78;;;;;;;;;;4949843;28;20094;-70
2023/10/05 13:06:46;;;;;;;12.70;3.08;;;;;;;;;;4946708;28;20039;-71
2023/10/05 13:09:13;;;;;;;13.75;3.40;;;;;;;;;;4946601;29;20086;-71
2023/10/05 13:11:39;;;;;;;12.70;3.03;;;;;;;;;;4949117;29;20075;-71
2023/10/05 13:14:09;;;;;;;9.38;2.70;;;;;;;;;;4952316;29;20035;-71
2023/10/05 13:16:35;;;;;;;8.00;2.67;;;;;;;;;;4930287;29;20113;-71
2023/10/05 13:19:03;;;;;;;16.40;3.97;;;;;;;;;;4932043;29;20046;-72
2023/10/05 13:21:29;;;;;;;13.18;3.45;;;;;;;;;;4951284;29;20043;-72
2023/10/05 13:23:55;;;;;;;8.73;2.70;;;;;;;;;;4951166;28;20050;-72
2023/10/05 13:26:25;;;;;;;11.30;3.38;;;;;;;;;;4950917;28;20020;-72
2023/10/05 13:28:51;;;;;;;16.27;3.72;;;;;;;;;;4948754;28;20031;-71
2023/10/05 13:31:20;;;;;;;11.02;3.30;;;;;;;;;;4948367;29;20036;-71
2023/10/05 13:33:48;;;;;;;10.65;3.05;;;;;;;;;;4947856;28;20047;-71
2023/10/05 13:36:14;;;;;;;12.15;2.92;;;;;;;;;;4948044;29;20031;-71
2023/10/05 13:38:43;;;;;;;11.70;3.40;;;;;;;;;;4946637;29;20150;-71
2023/10/05 13:41:15;;;;;;;12.80;2.92;;;;;;;;;;4930758;28;20086;-71
2023/10/05 13:43:41;;;;;;;15.88;3.58;;;;;;;;;;4939290;29;20027;-71
2023/10/05 13:46:21;;;;;;;11.65;3.03;;;;;;;;;;4949210;28;20118;-72
2023/10/05 13:48:48;;;;;;;12.10;3.10;;;;;;;;;;4951567;29;20035;-71
2023/10/05 13:51:19;;;;;;;12.45;3.20;;;;;;;;;;4934978;29;20043;-72
2023/10/05 13:53:46;;;;;;;12.80;2.97;;;;;;;;;;4942634;28;20095;-71
2023/10/05 13:56:12;;;;;;;13.48;3.60;;;;;;;;;;4947896;29;20033;-72
2023/10/05 13:58:43;;;;;;;13.77;4.03;;;;;;;;;;4951755;28;20047;-71
2023/10/05 14:01:16;;;;;;;10.63;3.08;;;;;;;;;;4935196;29;20059;-72
2023/10/05 14:03:44;;;;;;;9.38;3.25;;;;;;;;;;4934245;29;20504;-71
2023/10/05 14:06:11;;;;;;;15.20;3.15;;;;;;;;;;4950465;28;20034;-71
2023/10/05 14:08:37;;;;;;;11.93;3.30;;;;;;;;;;4948347;29;20034;-71
2023/10/05 14:11:04;;;;;;;10.93;2.75;;;;;;;;;;4945373;28;20035;-72
2023/10/05 14:13:30;;;;;;;9.18;2.15;;;;;;;;;;4945197;29;20528;-72
2023/10/05 14:16:01;;;;;;;10.43;3.00;;;;;;;;;;4944339;29;20087;-75
2023/10/05 14:18:27;;;;;;;;;;;;;;;;;;4947469;28;20386;-72
2023/10/05 14:20:53;;;;;;;13.43;2.83;;;;;;;;;;4949791;29;19922;-73
2023/10/05 14:23:19;;;;;;;10.15;2.88;;;;;;;;;;4934877;29;20036;-72
2023/10/05 14:25:46;;;;;;;10.48;3.25;;;;;;;;;;4949981;28;20110;-71
2023/10/05 14:28:17;;;;;;;11.77;2.80;;;;;;;;;;4953575;29;20043;-72
2023/10/05 14:30:44;;;;;;;12.57;2.65;;;;;;;;;;4930944;29;20042;-72
2023/10/05 14:33:28;;;;;;;10.68;2.72;;;;;;;;;;4947549;28;20139;-71
2023/10/05 14:35:57;;;;;;;9.13;2.60;;;;;;;;;;4948456;28;20075;-71
2023/10/05 14:38:25;;;;;;;6.95;2.42;;;;;;;;;;4950307;29;20488;-73
2023/10/05 14:40:53;;;;;;;10.20;2.92;;;;;;;;;;4933661;28;20042;-72
2023/10/05 14:43:20;;;;;;;12.10;3.35;;;;;;;;;;4949380;29;20023;-72
2023/10/05 14:45:52;;;;;;;12.57;3.25;;;;;;;;;;4944796;28;20051;-72
2023/10/05 14:48:21;;;;;;;10.40;2.90;;;;;;;;;;4949695;29;20035;-72
2023/10/05 14:50:51;;;;;;;13.50;2.70;;;;;;;;;;4948727;28;20089;-70
2023/10/05 14:53:21;;;;;;;9.15;2.65;;;;;;;;;;4947181;28;20031;-70
2023/10/05 14:55:47;;;;;;;10.95;2.80;;;;;;;;;;4945437;29;20039;-72
2023/10/05 14:58:14;;;;;;;13.35;3.00;;;;;;;;;;4950308;29;20050;-71
2023/10/05 15:00:40;;;;;;;12.32;2.80;;;;;;;;;;4949001;29;20023;-72
2023/10/05 15:03:06;;;;;;;20.23;5.22;;;;;;;;;;4947457;28;20384;-71
2023/10/05 15:05:35;;;;;;;14.35;3.30;;;;;;;;;;4943067;28;20079;-71
2023/10/05 15:08:02;;;;;;;9.60;2.78;;;;;;;;;;4936900;28;20391;-71
2023/10/05 15:10:30;;;;;;;12.60;3.55;;;;;;;;;;4942956;28;20046;-71
2023/10/05 15:12:57;;;;;;;13.20;3.28;;;;;;;;;;4931525;29;20600;-71